Flight Track Log - Related Links

Times and Time Zones

All times are in EDT time to prevent confusion due to time zone crossing. See the NGF68J flight status page for this flight to view local times or setup timezone preferences in your user account.

Time Position Orientation Groundspeed Altitude Reporting Facility
EDT Latitude Longitude Course Direction KTS MPH feet Rate Location/Type
Fri 12:49:00 PM 40.4427 -80.1780 294° West  Level FlightAware Approximate
Fri 12:50:00 PM 40.4572 -80.2144 303° West  Level FlightAware Approximate
Fri 12:51:00 PM 40.4733 -80.2497 298° West  Level FlightAware Approximate
Fri 12:52:00 PM 40.4880 -80.2862 298° West  Level FlightAware Approximate
Fri 12:53:00 PM 40.5027 -80.3226 298° West  Level FlightAware Approximate
Fri 12:54:00 PM 40.5174 -80.3591 298° West  Level FlightAware Approximate
Fri 12:55:00 PM 40.5320 -80.3956 298° West  Level FlightAware Approximate
Fri 12:56:00 PM 40.5467 -80.4321 298° West  Level FlightAware Approximate
Fri 12:57:00 PM 40.5613 -80.4686 298° West  Level FlightAware Approximate
Fri 12:58:00 PM 40.5760 -80.5051 298° West  Level FlightAware Approximate
Fri 12:59:00 PM 40.5906 -80.5417 298° West  Level FlightAware Approximate
Fri 01:00:00 PM 40.6052 -80.5783 298° West  Level FlightAware Approximate
Fri 01:01:00 PM 40.6198 -80.6149 298° West  Level FlightAware Approximate
Fri 01:02:00 PM 40.6344 -80.6515 298° West  Level FlightAware Approximate
Fri 01:03:00 PM 40.6489 -80.6881 298° West  Level FlightAware Approximate
Fri 01:04:00 PM 40.6635 -80.7247 298° West  Level FlightAware Approximate
Fri 01:05:00 PM 40.6781 -80.7613 298° West  Level FlightAware Approximate
Fri 01:06:00 PM 40.6926 -80.7980 298° West  Level FlightAware Approximate
Fri 01:07:00 PM 40.7069 -80.8348 297° West  Level FlightAware Approximate
Fri 01:08:00 PM 40.7211 -80.8717 297° West  Level FlightAware Approximate
Fri 01:09:00 PM 40.7352 -80.9087 297° West  Level FlightAware Approximate
Fri 01:10:00 PM 40.7493 -80.9457 297° West  Level FlightAware Approximate
Fri 01:11:00 PM 40.7634 -80.9827 297° West  Level FlightAware Approximate
Fri 01:12:00 PM 40.7775 -81.0197 297° West  Level FlightAware Approximate
Fri 01:13:00 PM 40.7916 -81.0567 297° West  Level FlightAware Approximate
Fri 01:14:00 PM 40.8057 -81.0938 297° West  Level FlightAware Approximate
Fri 01:15:00 PM 40.8197 -81.1308 297° West  Level FlightAware Approximate
Fri 01:16:00 PM 40.8338 -81.1679 297° West  Level FlightAware Approximate
Fri 01:17:00 PM 40.8478 -81.2050 297° West  Level FlightAware Approximate
Fri 01:18:00 PM 40.8618 -81.2421 297° West  Level FlightAware Approximate
Fri 01:19:00 PM 40.8758 -81.2792 297° West  Level FlightAware Approximate
Fri 01:20:00 PM 40.8898 -81.3164 297° West  Level FlightAware Approximate
Fri 01:21:00 PM 40.9038 -81.3535 296° West  Level FlightAware Approximate
Fri 01:22:00 PM 40.9178 -81.3907 296° West  Level FlightAware Approximate
Fri 01:23:00 PM 40.9316 -81.4276 296° West  Level FlightAware Approximate
Fri 01:24:00 PM 40.9455 -81.4645 296° West  Level FlightAware Approximate
Fri 01:25:00 PM 40.9593 -81.5015 296° West  Level FlightAware Approximate
Fri 01:25:37 PM 40.9422 -81.3281 296° West 132 152 3,900  Level Cleveland Center
Fri 01:26:00 PM 40.9731 -81.5385 296° West  Level FlightAware Approximate
Fri 01:27:00 PM 40.9869 -81.5754 296° West  Level FlightAware Approximate
Fri 01:27:09 PM 40.9606 -81.3969 289° West 126 145 3,800  Level Cleveland Center
Fri 01:28:00 PM 41.0007 -81.6124 296° West  Level FlightAware Approximate
Fri 01:28:03 PM 40.9686 -81.4328 287° West 120 138 3,900  Level Cleveland Center
Fri 01:28:58 PM 40.9747 -81.4714 282° West 118 136 3,900  Level Cleveland Center
Fri 01:29:00 PM 41.0145 -81.6494 296° West  Level FlightAware Approximate
Fri 01:29:59 PM 40.9828 -81.5072 287° West 114 131 3,900  Level Cleveland Center
Fri 01:30:00 PM 41.0288 -81.6877 296° West  Level FlightAware Approximate
Fri 01:31:00 PM 40.9989 -81.5542 294° West 126 145 4,000  Level Cleveland Center
Fri 01:31:00 PM 41.0429 -81.7260 296° West  Level FlightAware Approximate
Fri 01:31:54 PM 41.0133 -81.5875 300° West 122 140 3,900  Level Cleveland Center
Fri 01:33:19 PM 41.0336 -81.6456 295° West 121 139 4,000  Climbing Cleveland Center
Fri 01:34:20 PM 41.0519 -81.6872 300° West 120 138 3,900 -62 Descending Cleveland Center
Fri 01:34:56 PM 41.0581 -81.7147 286° West 127 146 3,900 104 Level Cleveland Center
Fri 01:36:15 PM 41.0742 -81.7675 292° West 115 132 4,100 98 Climbing Cleveland Center
Fri 01:36:58 PM 41.0842 -81.7953 296° West 114 131 4,100 -47 Level Cleveland Center
Fri 01:38:22 PM 41.1044 -81.8536 295° West 128 147 4,000 -50 Descending Cleveland Center
Fri 01:38:59 PM 41.1147 -81.8783 299° West 124 143 4,000 -49 Level Cleveland Center
Fri 01:40:24 PM 41.1369 -81.9369 297° West 127 146 3,900 -41 Descending Cleveland Center
Fri 01:41:24 PM 41.1531 -81.9811 296° West 129 148 3,900  Level Cleveland Center
Fri 01:42:19 PM 41.1650 -82.0172 294° West 131 151 3,900 -58 Level Cleveland Center
Fri 01:43:07 PM 41.1792 -82.0564 296° West 126 145 3,800  Descending Cleveland Center
Fri 01:44:08 PM 41.1953 -82.0981 297° West 126 145 3,900 55 Climbing Cleveland Center
Fri 01:44:57 PM 41.2072 -82.1314 295° West 123 142 3,900 50 Level Cleveland Center
Fri 01:46:09 PM 41.2233 -82.1789 294° West 119 137 4,000  Climbing Cleveland Center
Fri 01:47:04 PM 41.2311 -82.2203 284° West 124 143 3,900  Descending Cleveland Center
Fri 01:48:11 PM 41.2492 -82.2650 298° West 129 148 4,000 -45 Climbing Cleveland Center
Fri 01:49:17 PM 41.2653 -82.3097 296° West 124 143 3,800 -47 Descending Cleveland Center
Fri 01:50:18 PM 41.2792 -82.3542 293° West 127 146 3,900 52 Climbing Cleveland Center
Fri 01:51:12 PM 41.2911 -82.3933 292° West 128 147 3,900 50 Level Cleveland Center
Fri 01:52:19 PM 41.3111 -82.4381 301° West 125 144 4,000  Climbing Cleveland Center
Fri 01:53:20 PM 41.3231 -82.4825 290° West 130 150 3,900  Descending Cleveland Center
Fri 01:54:08 PM 41.3369 -82.5189 297° West 129 148 4,000 -55 Climbing Cleveland Center
Fri 01:55:09 PM 41.3508 -82.5608 294° West 130 150 3,800 -197 Descending Cleveland Center
Fri 01:56:10 PM 41.3689 -82.6083 297° West 137 158 3,600 -281 Descending Cleveland Center
Fri 01:57:17 PM 41.3803 -82.6586 287° West 136 157 3,200 -198 Descending Cleveland Center
Fri 01:58:11 PM 41.3900 -82.7006 287° West 131 151 3,200  Level Cleveland Center
Fri 01:59:30 PM 41.4036 -82.7564 288° West 126 145 3,200  Level Cleveland Center
Fri 02:00:07 PM 41.4092 -82.7869 284° West 124 143 3,200 58 Level Cleveland Center
Fri 02:01:13 PM 41.4167 -82.8369 281° West 123 142 3,300 142 Climbing Cleveland Center
Fri 02:02:14 PM 41.4242 -82.8817 283° West 121 139 3,500 197 Climbing Cleveland Center
Fri 02:04:00 PM 41.4505 -82.9455 299° West  Level FlightAware Approximate
Fri 02:11:00 PM 41.5546 -83.1989 299° West  Level FlightAware Approximate
Fri 02:12:00 PM 41.5694 -83.2352 299° West  Level FlightAware Approximate
Fri 02:13:00 PM 41.5842 -83.2715 299° West  Level FlightAware Approximate
Fri 02:14:00 PM 41.5990 -83.3078 299° West  Level FlightAware Approximate
Fri 02:15:00 PM 41.6138 -83.3441 299° West  Level FlightAware Approximate
Fri 02:16:00 PM 41.6285 -83.3804 299° West  Level FlightAware Approximate
Fri 02:17:00 PM 41.6433 -83.4168 299° West  Level FlightAware Approximate
Fri 02:18:00 PM 41.6570 -83.4542 294° West  Level FlightAware Approximate
Fri 02:19:00 PM 41.6696 -83.4920 294° West  Level FlightAware Approximate
Fri 02:20:00 PM 41.6822 -83.5298 294° West  Level FlightAware Approximate
Fri 02:21:00 PM 41.6948 -83.5677 294° West  Level FlightAware Approximate
Fri 02:22:00 PM 41.7101 -83.6035 304° West  Level FlightAware Approximate
Fri 02:23:00 PM 41.7273 -83.6379 304° West  Level FlightAware Approximate
Fri 02:24:00 PM 41.7333 -83.6500 304° West  Level FlightAware Approximate
Fri 02:25:00 PM 41.7359 -83.6558 304° West  Level Estimated
Fri 02:26:00 PM 41.7333 -83.6500 304° West  Level FlightAware Approximate
Fri 02:27:00 PM 41.7359 -83.6558 304° West  Level Estimated

Login

Don't have an account? Register now (free) for customized features, flight alerts, and more!